Hosei Maru No.7 — JK5642 — position and weather

sailwx.info

Track history (hours):
 
Tides and Currents Weather Stations Pressure Air Temp Water Temp Dewpoint Dewpoint Depression Visibility Wind Speed Wind Dir Waves Ship Positions

Hosei Maru No.7

Last reported at 2018-Jul-19 18:55 UTC. Time now 2018-Jul-19 19:22 UTC.
Position N 34°39' E 135°21'.

Length 60 m; draft 3.8 m.

Type: Tanker. MMSI: 431401974.

Date/timePositionNaut miles runAvg speedWind from/ knotsBaromVisibWave heightAir tempDewpointWater temp
2018-Jul-19 18:55N 34°39' E 135°21'0 0.0
2018-Jul-19 18:19N 34°39' E 135°21'0 0.0
2018-Jul-19 17:55N 34°39' E 135°21'0 0.0
2018-Jul-19 17:25N 34°39' E 135°21'0 0.1
2018-Jul-19 16:55N 34°39' E 135°21'0 0.1
2018-Jul-19 16:13N 34°39' E 135°21'0 0.2
2018-Jul-19 15:55N 34°39' E 135°21'0 0.0
2018-Jul-19 15:25N 34°39' E 135°21'0 0.0
2018-Jul-19 14:49N 34°39' E 135°21'2 3.1
2018-Jul-19 14:00N 34°38' E 135°19'612.4
2018-Jul-19 13:30N 34°35' E 135°12'612.0
2018-Jul-19 13:00N 34°35' E 135°05'1711.6
2018-Jul-19 11:33N 34°32' E 134°45'113.2
2018-Jul-19 11:28N 34°31' E 134°43'612.3
2018-Jul-19 11:00N 34°29' E 134°37'912.5
2018-Jul-19 10:17N 34°26' E 134°27'512.5
2018-Jul-19 09:54N 34°24' E 134°21'712.6
2018-Jul-19 09:20N 34°24' E 134°13'9 0.5
2018-Jul-18 15:25N 34°21' E 134°23'23 6.8
2018-Jul-18 11:57N 34°07' E 134°46'1810.5
2018-Jul-18 10:16N 33°53' E 134°60'23010.2
2018-Jul-17 11:45N 34°60' E 139°27'2 9.3
2018-Jul-17 11:29N 35°01' E 139°29'510.0
2018-Jul-17 11:01N 35°04' E 139°34'611.7
2018-Jul-17 10:31N 35°07' E 139°40'510.6
2018-Jul-17 10:01N 35°10' E 139°45'510.5
2018-Jul-17 09:31N 35°15' E 139°46'510.5
2018-Jul-17 09:00N 35°20' E 139°43'510.4
2018-Jul-17 08:31N 35°25' E 139°44'510.9
2018-Jul-17 08:01N 35°28' E 139°49'610.6
2018-Jul-17 07:28N 35°30' E 139°56'4 0.9
2018-Jul-17 03:12N 35°29' E 140°01'211.6
2018-Jul-17 02:59N 35°30' E 139°58'611.8
2018-Jul-17 02:30N 35°30' E 139°51'4 8.6
2018-Jul-17 02:01N 35°31' E 139°46'0 0.0
2018-Jul-17 01:25N 35°31' E 139°46'0 0.1
2018-Jul-17 00:55N 35°31' E 139°46'0 0.1
2018-Jul-17 00:18N 35°31' E 139°46'0 0.0
2018-Jul-16 23:27N 35°31' E 139°46'1 2.4
2018-Jul-16 22:59N 35°30' E 139°47'2 3.5
2018-Jul-16 22:22N 35°29' E 139°49'0 0.0
2018-Jul-16 21:52N 35°29' E 139°49'0 0.0
2018-Jul-16 21:22N 35°29' E 139°49'0 0.0
2018-Jul-16 20:16N 35°29' E 139°49'0 0.0
2018-Jul-16 19:55N 35°29' E 139°49'0 0.0
2018-Jul-16 18:37N 35°29' E 139°49'0 0.0
2018-Jul-16 18:19N 35°29' E 139°49'0 0.0
2018-Jul-16 17:49N 35°29' E 139°49'0 0.0
2018-Jul-16 17:19N 35°29' E 139°49'0 0.0
2018-Jul-16 16:40N 35°29' E 139°49'0 0.0
2018-Jul-16 16:28N 35°29' E 139°49'0 0.0
2018-Jul-16 15:52N 35°29' E 139°49'0 0.1
2018-Jul-16 15:16N 35°29' E 139°49'0 0.0
2018-Jul-16 14:58N 35°29' E 139°49'0 0.0
2018-Jul-16 14:28N 35°29' E 139°49'0 0.0
2018-Jul-16 13:58N 35°29' E 139°49'0 0.0
2018-Jul-16 13:10N 35°29' E 139°49'0 0.2
2018-Jul-16 12:55N 35°29' E 139°49'0 0.0
2018-Jul-16 11:49N 35°29' E 139°49'0 0.0
2018-Jul-16 11:22N 35°29' E 139°49'0 0.0
2018-Jul-16 10:43N 35°29' E 139°49'0 0.0
2018-Jul-16 10:25N 35°29' E 139°49'0 0.0
2018-Jul-16 09:07N 35°29' E 139°49'0 0.0
2018-Jul-16 08:58N 35°29' E 139°49'0 0.0
2018-Jul-16 08:07N 35°29' E 139°49'0 0.0
2018-Jul-16 07:13N 35°29' E 139°49'0 0.0
2018-Jul-16 06:49N 35°29' E 139°49'1 2.6
2018-Jul-16 06:30N 35°30' E 139°48'3 1.1
2018-Jul-16 04:06N 35°31' E 139°46'0 0.5
2018-Jul-16 04:00N 35°31' E 139°46'2 3.9
2018-Jul-16 03:30N 35°30' E 139°48'3 5.0
2018-Jul-16 03:00N 35°31' E 139°51'0 0.0
2018-Jul-16 02:26N 35°31' E 139°51'0 0.0
2018-Jul-16 01:50N 35°31' E 139°51'0 0.0
2018-Jul-16 01:29N 35°31' E 139°51'0 0.0
2018-Jul-16 00:59N 35°31' E 139°51'0 0.0
2018-Jul-16 00:26N 35°31' E 139°51'0 0.1
2018-Jul-15 23:59N 35°31' E 139°50'0 0.0
2018-Jul-15 23:29N 35°31' E 139°50'0 0.0
2018-Jul-15 21:02N 35°31' E 139°51'0 0.0
2018-Jul-15 20:08N 35°31' E 139°51'0 0.0
2018-Jul-15 15:50N 35°31' E 139°51'0 0.0
2018-Jul-15 12:14N 35°31' E 139°51'0 0.0
2018-Jul-15 11:08N 35°31' E 139°51'0 0.0
2018-Jul-15 10:56N 35°31' E 139°51'0 0.0
2018-Jul-15 10:26N 35°31' E 139°51'0 0.0
2018-Jul-15 09:08N 35°31' E 139°51'0 0.0
2018-Jul-15 08:44N 35°31' E 139°51'0 0.0
2018-Jul-15 08:26N 35°31' E 139°51'0 0.0
2018-Jul-15 05:08N 35°31' E 139°51'0 0.0
2018-Jul-15 04:56N 35°31' E 139°51'0 0.0
2018-Jul-15 04:26N 35°31' E 139°51'0 0.0
2018-Jul-15 03:44N 35°31' E 139°51'0 0.0
2018-Jul-15 03:20N 35°31' E 139°51'0 0.0
2018-Jul-15 02:59N 35°31' E 139°51'0 0.0
2018-Jul-15 02:23N 35°31' E 139°51'0 0.1
2018-Jul-15 01:14N 35°31' E 139°50'0 0.0
2018-Jul-14 22:38N 35°31' E 139°50'0 0.3
2018-Jul-14 22:29N 35°31' E 139°51'0 0.0
2018-Jul-14 21:59N 35°31' E 139°51'0 0.1
2018-Jul-14 21:29N 35°31' E 139°50'0 0.0
2018-Jul-14 19:20N 35°31' E 139°50'0 0.0
2018-Jul-14 18:59N 35°31' E 139°50'0 0.0
2018-Jul-14 17:26N 35°31' E 139°51'0 0.0
2018-Jul-14 16:56N 35°31' E 139°51'0 0.0
2018-Jul-14 13:38N 35°31' E 139°51'0 0.0
2018-Jul-14 13:29N 35°31' E 139°51'0 0.0
2018-Jul-14 11:41N 35°31' E 139°51'0 0.0
2018-Jul-14 11:29N 35°31' E 139°51'0 0.0
2018-Jul-14 10:50N 35°31' E 139°51'0 0.0
2018-Jul-14 10:23N 35°31' E 139°51'0 0.0
2018-Jul-14 09:59N 35°31' E 139°51'0 0.0
2018-Jul-14 08:41N 35°31' E 139°51'0 0.1
2018-Jul-14 08:17N 35°31' E 139°51'310.1
2018-Jul-14 08:00N 35°30' E 139°54'2 0.5
2018-Jul-14 03:07N 35°29' E 139°57'2 0.1
2018-Jul-13 07:00N 35°29' E 139°54'611.9
2018-Jul-13 06:30N 35°26' E 139°48'612.0
2018-Jul-13 05:59N 35°20' E 139°45'611.7
2018-Jul-13 05:30N 35°15' E 139°47'612.2
2018-Jul-13 05:00N 35°09' E 139°46'611.5
2018-Jul-13 04:30N 35°05' E 139°41'713.2
2018-Jul-13 04:00N 35°00' E 139°35'23510.8
2018-Jul-12 06:17N 33°51' E 135°03'511.7
2018-Jul-12 05:52N 33°56' E 135°01'512.3
2018-Jul-12 05:29N 34°01' E 135°00'612.6
2018-Jul-12 05:00N 34°07' E 134°60'714.8
2018-Jul-12 04:30N 34°14' E 134°59'713.9
2018-Jul-12 04:00N 34°21' E 134°60'713.2
2018-Jul-12 03:30N 34°26' E 135°06'712.7
2018-Jul-12 02:59N 34°30' E 135°12'612.4
2018-Jul-12 02:30N 34°34' E 135°17'612.2
2018-Jul-12 02:00N 34°38' E 135°23'4 1.9
2018-Jul-11 23:58N 34°40' E 135°27'0 0.0
2018-Jul-11 23:30N 34°40' E 135°27'0 0.0
2018-Jul-11 23:00N 34°40' E 135°27'2 3.6
2018-Jul-11 22:28N 34°39' E 135°25'3 6.7
2018-Jul-11 22:00N 34°39' E 135°21'0 0.0
2018-Jul-11 21:28N 34°39' E 135°21'0 0.0
2018-Jul-11 20:58N 34°39' E 135°21'0 0.0
2018-Jul-11 20:28N 34°39' E 135°21'0 0.0
2018-Jul-11 19:58N 34°39' E 135°21'0 0.0
2018-Jul-11 19:28N 34°39' E 135°21'0 0.0
2018-Jul-11 18:58N 34°39' E 135°21'0 0.0
2018-Jul-11 18:28N 34°39' E 135°21'0 0.0
2018-Jul-11 17:58N 34°39' E 135°21'0 0.0
2018-Jul-11 17:22N 34°39' E 135°21'0 0.0
2018-Jul-11 16:58N 34°39' E 135°21'0 0.0
2018-Jul-11 16:28N 34°39' E 135°21'0 0.0
2018-Jul-11 15:58N 34°39' E 135°21'0 0.0
2018-Jul-11 15:28N 34°39' E 135°21'0 0.0
2018-Jul-11 14:58N 34°39' E 135°21'0 0.0
2018-Jul-11 14:28N 34°39' E 135°21'0 0.0
2018-Jul-11 13:58N 34°39' E 135°21'0 0.1
2018-Jul-11 13:20N 34°39' E 135°21'3 9.9
2018-Jul-11 13:00N 34°36' E 135°19'612.0
2018-Jul-11 12:30N 34°31' E 135°14'612.5
2018-Jul-11 12:00N 34°26' E 135°10'612.0
2018-Jul-11 11:30N 34°21' E 135°06'612.3
2018-Jul-11 11:00N 34°16' E 135°03'913.1
2018-Jul-11 10:17N 34°07' E 135°02'412.6
2018-Jul-11 10:00N 34°03' E 135°02'712.1
2018-Jul-11 09:26N 33°56' E 135°02'222 9.9
2018-Jul-10 10:53N 34°57' E 139°21'3 8.5
2018-Jul-10 10:30N 34°59' E 139°25'4 8.9
2018-Jul-10 10:00N 35°01' E 139°29'510.7
2018-Jul-10 09:30N 35°04' E 139°35'611.1
2018-Jul-10 08:58N 35°07' E 139°41'511.0
2018-Jul-10 08:30N 35°11' E 139°45'510.6
2018-Jul-10 08:00N 35°17' E 139°45'611.5
2018-Jul-10 07:30N 35°22' E 139°42'510.9
2018-Jul-10 07:00N 35°27' E 139°45'4 8.6
2018-Jul-10 06:30N 35°31' E 139°46'0 0.7
2018-Jul-10 06:00N 35°31' E 139°46'0 0.0
2018-Jul-10 04:27N 35°31' E 139°46'1 2.8
2018-Jul-10 04:00N 35°30' E 139°47'3 0.5
2018-Jul-09 22:21N 35°30' E 139°50'0 0.0
2018-Jul-09 19:51N 35°30' E 139°50'0 0.0
2018-Jul-09 19:21N 35°30' E 139°50'0 0.0
2018-Jul-09 19:00N 35°30' E 139°50'  
Track history (hours):
 
Tides and Currents Weather Stations Pressure Air Temp Water Temp Dewpoint Dewpoint Depression Visibility Wind Speed Wind Dir Waves Ship Positions

Hosei Maru No.7

Last reported at 2018-Jul-19 18:55 UTC. Time now 2018-Jul-19 19:22 UTC.
Position N 34°39' E 135°21'.

Length 60 m; draft 3.8 m.

Type: Tanker. MMSI: 431401974.

Date/timePositionNaut miles runAvg speedWind from/ knotsBaromVisibWave heightAir tempDewpointWater temp
2018-Jul-19 18:55N 34°39' E 135°21'0 0.0
2018-Jul-19 18:19N 34°39' E 135°21'0 0.0
2018-Jul-19 17:55N 34°39' E 135°21'0 0.0
2018-Jul-19 17:25N 34°39' E 135°21'0 0.1
2018-Jul-19 16:55N 34°39' E 135°21'0 0.1
2018-Jul-19 16:13N 34°39' E 135°21'0 0.2
2018-Jul-19 15:55N 34°39' E 135°21'0 0.0
2018-Jul-19 15:25N 34°39' E 135°21'0 0.0
2018-Jul-19 14:49N 34°39' E 135°21'2 3.1
2018-Jul-19 14:00N 34°38' E 135°19'612.4
2018-Jul-19 13:30N 34°35' E 135°12'612.0
2018-Jul-19 13:00N 34°35' E 135°05'1711.6
2018-Jul-19 11:33N 34°32' E 134°45'113.2
2018-Jul-19 11:28N 34°31' E 134°43'612.3
2018-Jul-19 11:00N 34°29' E 134°37'912.5
2018-Jul-19 10:17N 34°26' E 134°27'512.5
2018-Jul-19 09:54N 34°24' E 134°21'712.6
2018-Jul-19 09:20N 34°24' E 134°13'9 0.5
2018-Jul-18 15:25N 34°21' E 134°23'23 6.8
2018-Jul-18 11:57N 34°07' E 134°46'1810.5
2018-Jul-18 10:16N 33°53' E 134°60'23010.2
2018-Jul-17 11:45N 34°60' E 139°27'2 9.3
2018-Jul-17 11:29N 35°01' E 139°29'510.0
2018-Jul-17 11:01N 35°04' E 139°34'611.7
2018-Jul-17 10:31N 35°07' E 139°40'510.6
2018-Jul-17 10:01N 35°10' E 139°45'510.5
2018-Jul-17 09:31N 35°15' E 139°46'510.5
2018-Jul-17 09:00N 35°20' E 139°43'510.4
2018-Jul-17 08:31N 35°25' E 139°44'510.9
2018-Jul-17 08:01N 35°28' E 139°49'610.6
2018-Jul-17 07:28N 35°30' E 139°56'4 0.9
2018-Jul-17 03:12N 35°29' E 140°01'211.6
2018-Jul-17 02:59N 35°30' E 139°58'611.8
2018-Jul-17 02:30N 35°30' E 139°51'4 8.6
2018-Jul-17 02:01N 35°31' E 139°46'0 0.0
2018-Jul-17 01:25N 35°31' E 139°46'0 0.1
2018-Jul-17 00:55N 35°31' E 139°46'0 0.1
2018-Jul-17 00:18N 35°31' E 139°46'0 0.0
2018-Jul-16 23:27N 35°31' E 139°46'1 2.4
2018-Jul-16 22:59N 35°30' E 139°47'2 3.5
2018-Jul-16 22:22N 35°29' E 139°49'0 0.0
2018-Jul-16 21:52N 35°29' E 139°49'0 0.0
2018-Jul-16 21:22N 35°29' E 139°49'0 0.0
2018-Jul-16 20:16N 35°29' E 139°49'0 0.0
2018-Jul-16 19:55N 35°29' E 139°49'0 0.0
2018-Jul-16 18:37N 35°29' E 139°49'0 0.0
2018-Jul-16 18:19N 35°29' E 139°49'0 0.0
2018-Jul-16 17:49N 35°29' E 139°49'0 0.0
2018-Jul-16 17:19N 35°29' E 139°49'0 0.0
2018-Jul-16 16:40N 35°29' E 139°49'0 0.0
2018-Jul-16 16:28N 35°29' E 139°49'0 0.0
2018-Jul-16 15:52N 35°29' E 139°49'0 0.1
2018-Jul-16 15:16N 35°29' E 139°49'0 0.0
2018-Jul-16 14:58N 35°29' E 139°49'0 0.0
2018-Jul-16 14:28N 35°29' E 139°49'0 0.0
2018-Jul-16 13:58N 35°29' E 139°49'0 0.0
2018-Jul-16 13:10N 35°29' E 139°49'0 0.2
2018-Jul-16 12:55N 35°29' E 139°49'0 0.0
2018-Jul-16 11:49N 35°29' E 139°49'0 0.0
2018-Jul-16 11:22N 35°29' E 139°49'0 0.0
2018-Jul-16 10:43N 35°29' E 139°49'0 0.0
2018-Jul-16 10:25N 35°29' E 139°49'0 0.0
2018-Jul-16 09:07N 35°29' E 139°49'0 0.0
2018-Jul-16 08:58N 35°29' E 139°49'0 0.0
2018-Jul-16 08:07N 35°29' E 139°49'0 0.0
2018-Jul-16 07:13N 35°29' E 139°49'0 0.0
2018-Jul-16 06:49N 35°29' E 139°49'1 2.6
2018-Jul-16 06:30N 35°30' E 139°48'3 1.1
2018-Jul-16 04:06N 35°31' E 139°46'0 0.5
2018-Jul-16 04:00N 35°31' E 139°46'2 3.9
2018-Jul-16 03:30N 35°30' E 139°48'3 5.0
2018-Jul-16 03:00N 35°31' E 139°51'0 0.0
2018-Jul-16 02:26N 35°31' E 139°51'0 0.0
2018-Jul-16 01:50N 35°31' E 139°51'0 0.0
2018-Jul-16 01:29N 35°31' E 139°51'0 0.0
2018-Jul-16 00:59N 35°31' E 139°51'0 0.0
2018-Jul-16 00:26N 35°31' E 139°51'0 0.1
2018-Jul-15 23:59N 35°31' E 139°50'0 0.0
2018-Jul-15 23:29N 35°31' E 139°50'0 0.0
2018-Jul-15 21:02N 35°31' E 139°51'0 0.0
2018-Jul-15 20:08N 35°31' E 139°51'0 0.0
2018-Jul-15 15:50N 35°31' E 139°51'0 0.0
2018-Jul-15 12:14N 35°31' E 139°51'0 0.0
2018-Jul-15 11:08N 35°31' E 139°51'0 0.0
2018-Jul-15 10:56N 35°31' E 139°51'0 0.0
2018-Jul-15 10:26N 35°31' E 139°51'0 0.0
2018-Jul-15 09:08N 35°31' E 139°51'0 0.0
2018-Jul-15 08:44N 35°31' E 139°51'0 0.0
2018-Jul-15 08:26N 35°31' E 139°51'0 0.0
2018-Jul-15 05:08N 35°31' E 139°51'0 0.0
2018-Jul-15 04:56N 35°31' E 139°51'0 0.0
2018-Jul-15 04:26N 35°31' E 139°51'0 0.0
2018-Jul-15 03:44N 35°31' E 139°51'0 0.0
2018-Jul-15 03:20N 35°31' E 139°51'0 0.0
2018-Jul-15 02:59N 35°31' E 139°51'0 0.0
2018-Jul-15 02:23N 35°31' E 139°51'0 0.1
2018-Jul-15 01:14N 35°31' E 139°50'0 0.0
2018-Jul-14 22:38N 35°31' E 139°50'0 0.3
2018-Jul-14 22:29N 35°31' E 139°51'0 0.0
2018-Jul-14 21:59N 35°31' E 139°51'0 0.1
2018-Jul-14 21:29N 35°31' E 139°50'0 0.0
2018-Jul-14 19:20N 35°31' E 139°50'0 0.0
2018-Jul-14 18:59N 35°31' E 139°50'0 0.0
2018-Jul-14 17:26N 35°31' E 139°51'0 0.0
2018-Jul-14 16:56N 35°31' E 139°51'0 0.0
2018-Jul-14 13:38N 35°31' E 139°51'0 0.0
2018-Jul-14 13:29N 35°31' E 139°51'0 0.0
2018-Jul-14 11:41N 35°31' E 139°51'0 0.0
2018-Jul-14 11:29N 35°31' E 139°51'0 0.0
2018-Jul-14 10:50N 35°31' E 139°51'0 0.0
2018-Jul-14 10:23N 35°31' E 139°51'0 0.0
2018-Jul-14 09:59N 35°31' E 139°51'0 0.0
2018-Jul-14 08:41N 35°31' E 139°51'0 0.1
2018-Jul-14 08:17N 35°31' E 139°51'310.1
2018-Jul-14 08:00N 35°30' E 139°54'2 0.5
2018-Jul-14 03:07N 35°29' E 139°57'2 0.1
2018-Jul-13 07:00N 35°29' E 139°54'611.9
2018-Jul-13 06:30N 35°26' E 139°48'612.0
2018-Jul-13 05:59N 35°20' E 139°45'611.7
2018-Jul-13 05:30N 35°15' E 139°47'612.2
2018-Jul-13 05:00N 35°09' E 139°46'611.5
2018-Jul-13 04:30N 35°05' E 139°41'713.2
2018-Jul-13 04:00N 35°00' E 139°35'23510.8
2018-Jul-12 06:17N 33°51' E 135°03'511.7
2018-Jul-12 05:52N 33°56' E 135°01'512.3
2018-Jul-12 05:29N 34°01' E 135°00'612.6
2018-Jul-12 05:00N 34°07' E 134°60'714.8
2018-Jul-12 04:30N 34°14' E 134°59'713.9
2018-Jul-12 04:00N 34°21' E 134°60'713.2
2018-Jul-12 03:30N 34°26' E 135°06'712.7
2018-Jul-12 02:59N 34°30' E 135°12'612.4
2018-Jul-12 02:30N 34°34' E 135°17'612.2
2018-Jul-12 02:00N 34°38' E 135°23'4 1.9
2018-Jul-11 23:58N 34°40' E 135°27'0 0.0
2018-Jul-11 23:30N 34°40' E 135°27'0 0.0
2018-Jul-11 23:00N 34°40' E 135°27'2 3.6
2018-Jul-11 22:28N 34°39' E 135°25'3 6.7
2018-Jul-11 22:00N 34°39' E 135°21'0 0.0
2018-Jul-11 21:28N 34°39' E 135°21'0 0.0
2018-Jul-11 20:58N 34°39' E 135°21'0 0.0
2018-Jul-11 20:28N 34°39' E 135°21'0 0.0
2018-Jul-11 19:58N 34°39' E 135°21'0 0.0
2018-Jul-11 19:28N 34°39' E 135°21'0 0.0
2018-Jul-11 18:58N 34°39' E 135°21'0 0.0
2018-Jul-11 18:28N 34°39' E 135°21'0 0.0
2018-Jul-11 17:58N 34°39' E 135°21'0 0.0
2018-Jul-11 17:22N 34°39' E 135°21'0 0.0
2018-Jul-11 16:58N 34°39' E 135°21'0 0.0
2018-Jul-11 16:28N 34°39' E 135°21'0 0.0
2018-Jul-11 15:58N 34°39' E 135°21'0 0.0
2018-Jul-11 15:28N 34°39' E 135°21'0 0.0
2018-Jul-11 14:58N 34°39' E 135°21'0 0.0
2018-Jul-11 14:28N 34°39' E 135°21'0 0.0
2018-Jul-11 13:58N 34°39' E 135°21'0 0.1
2018-Jul-11 13:20N 34°39' E 135°21'3 9.9
2018-Jul-11 13:00N 34°36' E 135°19'612.0
2018-Jul-11 12:30N 34°31' E 135°14'612.5
2018-Jul-11 12:00N 34°26' E 135°10'612.0
2018-Jul-11 11:30N 34°21' E 135°06'612.3
2018-Jul-11 11:00N 34°16' E 135°03'913.1
2018-Jul-11 10:17N 34°07' E 135°02'412.6
2018-Jul-11 10:00N 34°03' E 135°02'712.1
2018-Jul-11 09:26N 33°56' E 135°02'222 9.9
2018-Jul-10 10:53N 34°57' E 139°21'3 8.5
2018-Jul-10 10:30N 34°59' E 139°25'4 8.9
2018-Jul-10 10:00N 35°01' E 139°29'510.7
2018-Jul-10 09:30N 35°04' E 139°35'611.1
2018-Jul-10 08:58N 35°07' E 139°41'511.0
2018-Jul-10 08:30N 35°11' E 139°45'510.6
2018-Jul-10 08:00N 35°17' E 139°45'611.5
2018-Jul-10 07:30N 35°22' E 139°42'510.9
2018-Jul-10 07:00N 35°27' E 139°45'4 8.6
2018-Jul-10 06:30N 35°31' E 139°46'0 0.7
2018-Jul-10 06:00N 35°31' E 139°46'0 0.0
2018-Jul-10 04:27N 35°31' E 139°46'1 2.8
2018-Jul-10 04:00N 35°30' E 139°47'3 0.5
2018-Jul-09 22:21N 35°30' E 139°50'0 0.0
2018-Jul-09 19:51N 35°30' E 139°50'0 0.0
2018-Jul-09 19:21N 35°30' E 139°50'0 0.0
2018-Jul-09 19:00N 35°30' E 139°50'  

Dump ship's entire track history